createdAt,value
2023-04-15T00:01:01.398Z,2.05
2023-04-15T00:03:29.958Z,1.92
2023-04-15T00:05:58.568Z,1.30
2023-04-15T00:08:25.740Z,1.98
2023-04-15T00:10:53.174Z,1.50
2023-04-15T00:13:20.411Z,1.65
2023-04-15T00:15:48.144Z,2.13
2023-04-15T00:18:15.182Z,1.33
2023-04-15T00:20:42.022Z,2.35
2023-04-15T00:23:08.889Z,2.85
2023-04-15T00:25:35.939Z,3.10
2023-04-15T00:28:02.895Z,3.53
2023-04-15T00:30:29.965Z,2.92
2023-04-15T00:32:57.056Z,2.50
2023-04-15T00:35:24.239Z,3.08
2023-04-15T00:37:51.686Z,3.03
2023-04-15T00:40:21.249Z,2.90
2023-04-15T00:42:48.265Z,2.88
2023-04-15T00:45:15.776Z,2.92
2023-04-15T00:47:44.561Z,2.83
2023-04-15T00:50:12.924Z,3.05
2023-04-15T00:52:40.907Z,3.42
2023-04-15T00:55:11.006Z,2.65
2023-04-15T00:57:39.967Z,2.90
2023-04-15T01:02:59.728Z,2.50
2023-04-15T01:05:27.154Z,1.98
2023-04-15T01:07:55.300Z,2.63
2023-04-15T01:10:22.432Z,2.25
2023-04-15T01:12:49.694Z,2.55
2023-04-15T01:15:16.735Z,2.55
2023-04-15T01:17:43.700Z,2.50
2023-04-15T01:20:12.401Z,3.80
2023-04-15T01:22:39.688Z,4.57
2023-04-15T01:25:15.812Z,5.75
2023-04-15T01:27:42.909Z,5.13
2023-04-15T01:30:10.755Z,4.13
2023-04-15T01:32:38.566Z,3.83
2023-04-15T01:35:06.108Z,4.25
2023-04-15T01:37:33.377Z,4.28
2023-04-15T01:40:00.400Z,3.97
2023-04-15T01:42:27.907Z,4.30
2023-04-15T01:44:54.989Z,3.75
2023-04-15T01:47:22.698Z,3.50
2023-04-15T01:49:49.729Z,3.97
2023-04-15T01:52:16.627Z,4.32
2023-04-15T01:54:43.615Z,3.70
2023-04-15T01:57:10.489Z,4.03
2023-04-15T01:59:37.493Z,3.80
2023-04-15T02:02:04.924Z,3.67
2023-04-15T02:04:32.131Z,3.78
2023-04-15T02:06:59.021Z,3.92
2023-04-15T02:09:25.997Z,3.97
2023-04-15T02:11:54.422Z,4.20
2023-04-15T02:14:21.638Z,4.43
2023-04-15T02:16:48.606Z,4.65
2023-04-15T02:19:16.186Z,5.10
2023-04-15T02:21:42.968Z,4.95
2023-04-15T02:24:10.018Z,7.03
2023-04-15T02:26:36.855Z,6.13
2023-04-15T02:29:03.939Z,4.70
2023-04-15T02:31:31.039Z,5.10
2023-04-15T02:33:57.888Z,4.30
2023-04-15T02:36:24.861Z,4.80
2023-04-15T02:38:51.877Z,4.15
2023-04-15T02:41:18.896Z,4.75
2023-04-15T02:43:45.835Z,4.60
2023-04-15T02:46:15.047Z,4.78
2023-04-15T02:48:42.054Z,4.05
2023-04-15T02:51:31.419Z,4.35
2023-04-15T02:53:58.687Z,4.07
2023-04-15T02:56:25.810Z,4.20
2023-04-15T02:58:56.284Z,4.70
2023-04-15T03:01:23.176Z,4.22
2023-04-15T03:03:50.276Z,4.25
2023-04-15T03:06:17.352Z,5.47
2023-04-15T03:08:44.244Z,4.30
2023-04-15T03:11:11.136Z,4.60
2023-04-15T03:13:39.767Z,4.72
2023-04-15T03:16:07.353Z,4.43
2023-04-15T03:18:34.213Z,4.30
2023-04-15T03:21:01.253Z,3.80
2023-04-15T03:23:28.195Z,3.80
2023-04-15T03:25:57.344Z,3.63
2023-04-15T03:28:24.809Z,3.60
2023-04-15T03:30:51.828Z,3.97
2023-04-15T03:33:18.698Z,3.97
2023-04-15T03:35:45.709Z,4.03
2023-04-15T03:38:12.560Z,4.55
2023-04-15T03:40:42.359Z,3.83
2023-04-15T03:43:09.390Z,4.10
2023-04-15T03:45:36.397Z,4.47
2023-04-15T03:48:16.479Z,4.05
2023-04-15T03:50:44.462Z,4.70
2023-04-15T03:53:11.462Z,4.00
2023-04-15T03:55:38.494Z,4.35
2023-04-15T03:58:05.436Z,4.03
2023-04-15T04:00:32.733Z,4.18
2023-04-15T04:02:59.766Z,4.13
2023-04-15T04:05:26.786Z,4.53
2023-04-15T04:07:53.661Z,4.55
2023-04-15T04:10:20.492Z,4.85
2023-04-15T04:12:47.365Z,4.43
2023-04-15T04:15:14.291Z,4.88
2023-04-15T04:17:41.533Z,4.43
2023-04-15T04:20:08.960Z,4.25
2023-04-15T04:22:42.708Z,4.57
2023-04-15T04:25:10.578Z,4.55
2023-04-15T04:27:37.610Z,4.43
2023-04-15T04:30:05.689Z,4.30
2023-04-15T04:32:32.654Z,4.35
2023-04-15T04:34:59.602Z,6.55
2023-04-15T04:37:26.750Z,4.00
2023-04-15T04:39:53.618Z,3.15
2023-04-15T04:42:20.568Z,3.67
2023-04-15T04:44:47.463Z,3.45
2023-04-15T04:47:14.340Z,3.13
2023-04-15T04:49:41.749Z,3.35
2023-04-15T04:52:09.273Z,4.97
2023-04-15T04:54:36.421Z,6.57
2023-04-15T04:57:03.293Z,8.07
2023-04-15T04:59:30.195Z,7.82
2023-04-15T05:01:57.185Z,6.63
2023-04-15T05:04:24.215Z,7.47
2023-04-15T05:06:51.107Z,7.30
2023-04-15T05:09:18.069Z,6.45
2023-04-15T05:11:44.953Z,7.03
2023-04-15T05:14:11.900Z,6.45
2023-04-15T05:16:38.786Z,7.97
2023-04-15T05:19:05.865Z,6.38
2023-04-15T05:21:32.739Z,5.72
2023-04-15T05:23:59.554Z,6.60
2023-04-15T05:26:27.692Z,5.25
2023-04-15T05:28:55.299Z,7.32
2023-04-15T05:31:22.265Z,5.38
2023-04-15T05:33:49.343Z,5.50
2023-04-15T05:36:16.205Z,4.78
2023-04-15T05:38:43.039Z,3.10
2023-04-15T05:41:09.904Z,2.80
2023-04-15T05:43:36.734Z,2.95
2023-04-15T05:46:03.572Z,3.60
2023-04-15T05:48:30.741Z,3.92
2023-04-15T05:50:58.089Z,3.88
2023-04-15T05:53:24.952Z,4.95
2023-04-15T05:55:51.879Z,7.75
2023-04-15T05:58:18.725Z,8.68
2023-04-15T06:00:46.417Z,8.90
2023-04-15T06:03:13.619Z,9.75
2023-04-15T06:05:40.836Z,9.15
2023-04-15T06:08:08.485Z,8.73
2023-04-15T06:10:36.959Z,8.35
2023-04-15T06:13:04.465Z,7.18
2023-04-15T06:15:31.914Z,7.88
2023-04-15T06:17:58.926Z,10.15
2023-04-15T06:20:25.839Z,9.63
2023-04-15T06:22:52.817Z,8.10
2023-04-15T06:25:20.114Z,7.72
2023-04-15T06:27:55.953Z,10.73
2023-04-15T06:30:24.410Z,7.15
2023-04-15T06:32:51.452Z,6.55
2023-04-15T06:35:18.589Z,6.07
2023-04-15T06:37:57.003Z,5.75
2023-04-15T06:40:23.845Z,6.07
2023-04-15T06:43:05.106Z,5.82
2023-04-15T06:45:32.545Z,5.05
2023-04-15T06:47:59.568Z,4.68
2023-04-15T06:50:27.390Z,5.28
2023-04-15T06:52:56.440Z,4.53
2023-04-15T06:55:23.399Z,5.40
2023-04-15T06:58:04.385Z,3.88
2023-04-15T07:00:31.452Z,4.10
2023-04-15T07:02:58.376Z,2.53
2023-04-15T07:05:25.665Z,2.40
2023-04-15T07:07:53.142Z,2.20
2023-04-15T07:10:20.537Z,2.13
2023-04-15T07:12:49.232Z,1.98
2023-04-15T07:15:26.185Z,1.40
2023-04-15T07:17:53.089Z,1.42
2023-04-15T07:20:20.208Z,1.73
2023-04-15T07:22:47.019Z,1.90
2023-04-15T07:25:13.960Z,1.45
2023-04-15T07:27:40.922Z,1.00
2023-04-15T07:30:12.857Z,1.00
2023-04-15T07:32:39.939Z,1.33
2023-04-15T07:35:07.065Z,0.70
2023-04-15T07:37:34.866Z,0.77
2023-04-15T07:40:02.297Z,0.85
2023-04-15T07:42:40.739Z,0.80
2023-04-15T07:45:09.668Z,2.75
2023-04-15T07:47:36.736Z,1.92
2023-04-15T07:50:03.732Z,1.80
2023-04-15T07:52:40.660Z,1.30
2023-04-15T07:55:11.055Z,0.70
2023-04-15T07:58:18.104Z,1.17
2023-04-15T08:00:47.053Z,0.80
2023-04-15T08:03:14.036Z,0.90
2023-04-15T08:06:09.541Z,1.20
2023-04-15T08:08:36.837Z,0.93
2023-04-15T08:11:03.679Z,1.13
2023-04-15T08:13:30.771Z,0.68
2023-04-15T08:16:23.022Z,1.02
2023-04-15T08:18:51.740Z,1.00
2023-04-15T08:21:20.144Z,1.00
2023-04-15T08:23:48.545Z,0.93
2023-04-15T08:26:15.748Z,0.90
2023-04-15T08:28:49.274Z,0.70
2023-04-15T08:31:17.769Z,1.77
2023-04-15T08:33:45.310Z,0.90
2023-04-15T08:36:12.353Z,1.45
2023-04-15T08:38:39.253Z,1.02
2023-04-15T08:41:23.692Z,1.20
2023-04-15T08:43:58.978Z,3.30
2023-04-15T08:46:26.924Z,1.20
2023-04-15T08:48:57.313Z,1.50
2023-04-15T08:51:25.953Z,1.35
2023-04-15T08:53:53.361Z,1.55
2023-04-15T08:56:25.382Z,1.40
2023-04-15T08:58:53.381Z,1.50
2023-04-15T09:01:21.263Z,1.20
2023-04-15T09:03:50.527Z,1.65
2023-04-15T09:06:18.138Z,1.55
2023-04-15T09:08:49.733Z,1.42
2023-04-15T09:11:20.019Z,1.13
2023-04-15T09:13:47.362Z,1.20
2023-04-15T09:16:14.534Z,1.77
2023-04-15T09:18:41.377Z,1.20
2023-04-15T09:21:12.889Z,1.08
2023-04-15T09:23:42.067Z,0.80
2023-04-15T09:26:08.994Z,0.88
2023-04-15T09:28:42.699Z,1.02
2023-04-15T09:31:10.838Z,0.90
2023-04-15T09:33:55.250Z,0.90
2023-04-15T09:36:22.153Z,0.80
2023-04-15T09:38:56.837Z,1.05
2023-04-15T09:41:25.098Z,0.88
2023-04-15T09:43:52.585Z,1.40
2023-04-15T09:46:19.740Z,1.70
2023-04-15T09:48:46.884Z,1.42
2023-04-15T09:51:14.395Z,1.38
2023-04-15T09:53:41.425Z,0.98
2023-04-15T09:56:09.515Z,1.50
2023-04-15T09:58:38.903Z,1.38
2023-04-15T10:01:10.189Z,1.40
2023-04-15T10:03:37.749Z,1.63
2023-04-15T10:06:05.817Z,1.85
2023-04-15T10:08:35.154Z,1.80
2023-04-15T10:11:03.465Z,1.08
2023-04-15T10:13:33.540Z,1.40
2023-04-15T10:16:21.603Z,1.38
2023-04-15T10:18:55.485Z,2.30
2023-04-15T10:21:23.860Z,0.93
2023-04-15T10:23:55.190Z,1.83
2023-04-15T10:26:22.370Z,2.88
2023-04-15T10:28:50.181Z,1.30
2023-04-15T10:31:18.646Z,0.80
2023-04-15T10:33:47.658Z,1.23
2023-04-15T10:36:15.564Z,1.10
2023-04-15T10:38:48.618Z,1.65
2023-04-15T10:41:22.839Z,1.40
2023-04-15T10:44:09.179Z,0.82
2023-04-15T10:46:42.396Z,2.63
2023-04-15T10:49:18.213Z,1.40
2023-04-15T10:51:52.995Z,1.70
2023-04-15T10:54:39.068Z,1.08
2023-04-15T10:57:08.522Z,1.02
2023-04-15T11:00:06.815Z,2.67
2023-04-15T11:02:44.130Z,3.10
2023-04-15T11:05:42.275Z,1.50
2023-04-15T11:08:10.786Z,1.38
2023-04-15T11:10:37.534Z,1.90
2023-04-15T11:13:27.390Z,1.20
2023-04-15T11:15:58.496Z,0.98
2023-04-15T11:18:28.711Z,1.13
2023-04-15T11:21:01.389Z,1.05
2023-04-15T11:23:38.266Z,1.20
2023-04-15T11:26:10.015Z,1.00
2023-04-15T11:28:38.926Z,1.30
2023-04-15T11:31:08.835Z,1.10
2023-04-15T11:33:35.833Z,1.17
2023-04-15T11:36:04.401Z,1.52
2023-04-15T11:38:31.789Z,1.27
2023-04-15T11:40:58.930Z,1.40
2023-04-15T11:43:25.925Z,1.13
2023-04-15T11:45:56.553Z,1.30
2023-04-15T11:48:29.176Z,0.88
2023-04-15T11:51:07.301Z,1.45
2023-04-15T11:53:49.136Z,1.17
2023-04-15T11:56:23.246Z,1.20
2023-04-15T11:59:22.958Z,1.40
2023-04-15T12:01:52.552Z,1.45
2023-04-15T12:04:25.419Z,0.95
2023-04-15T12:06:53.178Z,1.10
2023-04-15T12:09:25.384Z,2.25
2023-04-15T12:11:55.680Z,5.53
2023-04-15T12:14:24.527Z,2.20
2023-04-15T12:17:18.137Z,0.70
2023-04-15T12:19:48.627Z,0.77
2023-04-15T12:22:38.229Z,1.42
2023-04-15T12:25:05.486Z,0.98
2023-04-15T12:27:32.520Z,1.05
2023-04-15T12:30:06.458Z,1.63
2023-04-15T12:32:35.691Z,0.82
2023-04-15T12:35:02.565Z,1.40
2023-04-15T12:37:29.443Z,1.35
2023-04-15T12:39:56.354Z,1.10
2023-04-15T12:42:23.136Z,0.80
2023-04-15T12:44:49.992Z,1.60
2023-04-15T12:47:17.008Z,1.70
2023-04-15T12:49:43.968Z,1.48
2023-04-15T12:52:10.966Z,1.48
2023-04-15T12:54:37.847Z,1.60
2023-04-15T12:57:07.710Z,1.25
2023-04-15T12:59:37.696Z,3.85
2023-04-15T13:02:04.867Z,2.63
2023-04-15T13:04:32.192Z,1.42
2023-04-15T13:06:59.344Z,0.90
2023-04-15T13:09:26.554Z,1.75
2023-04-15T13:11:54.662Z,1.27
2023-04-15T13:14:38.817Z,1.52
2023-04-15T13:17:10.305Z,1.08
2023-04-15T13:19:37.306Z,1.20
2023-04-15T13:22:04.279Z,1.10
2023-04-15T13:24:31.118Z,1.20
2023-04-15T13:26:59.364Z,1.80
2023-04-15T13:29:26.759Z,1.40
2023-04-15T13:31:53.643Z,1.08
2023-04-15T13:34:20.596Z,1.10
2023-04-15T13:36:48.488Z,1.20
2023-04-15T13:39:15.470Z,1.10
2023-04-15T13:41:42.782Z,1.10
2023-04-15T13:44:09.707Z,1.30
2023-04-15T13:46:37.937Z,1.20
2023-04-15T13:49:04.800Z,1.80
2023-04-15T13:51:32.058Z,1.48
2023-04-15T13:53:58.949Z,1.40
2023-04-15T13:56:26.173Z,1.58
2023-04-15T13:58:59.043Z,1.33
2023-04-15T14:01:41.458Z,1.92
2023-04-15T14:04:18.439Z,1.60
2023-04-15T14:06:45.531Z,1.50
2023-04-15T14:09:12.308Z,1.73
2023-04-15T14:11:39.828Z,2.90
2023-04-15T14:14:06.871Z,4.43
2023-04-15T14:16:34.574Z,1.25
2023-04-15T14:19:02.660Z,1.25
2023-04-15T14:21:40.663Z,1.80
2023-04-15T14:24:07.654Z,1.52
2023-04-15T14:26:34.588Z,2.40
2023-04-15T14:29:27.247Z,1.88
2023-04-15T14:32:04.334Z,1.50
2023-04-15T14:34:39.581Z,1.45
2023-04-15T14:37:06.779Z,2.45
2023-04-15T14:39:33.603Z,1.85
2023-04-15T14:42:00.557Z,1.92
2023-04-15T14:44:27.450Z,2.58
2023-04-15T14:46:55.008Z,2.50
2023-04-15T14:49:21.991Z,2.30
2023-04-15T14:51:48.852Z,1.70
2023-04-15T14:54:15.803Z,1.88
2023-04-15T14:57:07.941Z,1.95
2023-04-15T14:59:36.813Z,1.80
2023-04-15T15:02:04.149Z,1.27
2023-04-15T15:04:33.554Z,1.35
2023-04-15T15:10:49.402Z,5.03
2023-04-15T15:13:18.019Z,5.95
2023-04-15T15:15:45.575Z,5.20
2023-04-15T15:18:12.483Z,3.15
2023-04-15T15:20:39.405Z,2.58
2023-04-15T15:23:06.294Z,2.50
2023-04-15T15:25:35.197Z,2.30
2023-04-15T15:28:02.046Z,2.15
2023-04-15T15:30:29.062Z,1.58
2023-04-15T15:33:03.972Z,1.92
2023-04-15T15:35:31.106Z,1.60
2023-04-15T15:38:00.787Z,1.73
2023-04-15T15:40:27.705Z,1.20
2023-04-15T15:42:54.507Z,1.27
2023-04-15T15:45:21.458Z,1.73
2023-04-15T15:47:48.337Z,1.23
2023-04-15T15:50:36.910Z,0.90
2023-04-15T15:53:03.727Z,1.35
2023-04-15T15:55:32.884Z,1.55
2023-04-15T15:58:07.894Z,128.25
2023-04-15T16:00:43.146Z,9.45
2023-04-15T16:03:35.432Z,4.60
2023-04-15T16:06:02.386Z,4.03
2023-04-15T16:08:29.244Z,3.25
2023-04-15T16:10:56.235Z,2.40
2023-04-15T16:13:23.327Z,3.90
2023-04-15T16:15:59.386Z,2.90
2023-04-15T16:18:26.237Z,4.10
2023-04-15T16:20:53.099Z,6.13
2023-04-15T16:23:20.162Z,7.18
2023-04-15T16:25:47.023Z,8.82
2023-04-15T16:28:25.177Z,9.80
2023-04-15T16:30:53.319Z,12.10
2023-04-15T16:33:20.403Z,10.95
2023-04-15T16:35:47.424Z,11.55
2023-04-15T16:38:14.351Z,12.95
2023-04-15T16:40:41.428Z,11.90
2023-04-15T16:43:11.279Z,12.68
2023-04-15T16:45:38.609Z,12.65
2023-04-15T16:48:05.954Z,9.45
2023-04-15T16:50:32.937Z,10.57
2023-04-15T16:53:11.007Z,11.10
2023-04-15T16:56:08.056Z,11.77
2023-04-15T16:58:37.216Z,13.15
2023-04-15T17:01:04.283Z,10.77
2023-04-15T17:03:34.421Z,9.95
2023-04-15T17:06:01.494Z,8.30
2023-04-15T17:08:34.523Z,19.02
2023-04-15T17:11:12.907Z,14.07
2023-04-15T17:13:39.762Z,12.25
2023-04-15T17:16:10.843Z,11.73
2023-04-15T17:18:38.818Z,10.25
2023-04-15T17:24:46.637Z,8.88
2023-04-15T17:27:13.455Z,9.13
2023-04-15T17:29:40.269Z,8.95
2023-04-15T17:32:08.521Z,7.95
2023-04-15T17:34:49.714Z,8.88
2023-04-15T17:37:18.733Z,8.10
2023-04-15T17:39:45.814Z,8.60
2023-04-15T17:42:13.837Z,8.82
2023-04-15T17:44:46.199Z,9.23
2023-04-15T17:47:21.950Z,12.20
2023-04-15T17:49:48.863Z,15.80
2023-04-15T17:52:15.716Z,19.13
2023-04-15T17:54:42.688Z,25.55
2023-04-15T17:57:09.857Z,22.25
2023-04-15T17:59:36.755Z,22.73
2023-04-15T18:02:04.208Z,22.88
2023-04-15T18:04:31.271Z,15.65
2023-04-15T18:06:58.237Z,15.00
2023-04-15T18:09:25.198Z,13.68
2023-04-15T18:11:52.037Z,11.02
2023-04-15T18:14:32.966Z,10.50
2023-04-15T18:17:01.235Z,12.63
2023-04-15T18:19:28.071Z,16.27
2023-04-15T18:21:54.953Z,16.20
2023-04-15T18:24:22.831Z,18.55
2023-04-15T18:26:49.774Z,19.58
2023-04-15T18:29:16.743Z,20.65
2023-04-15T18:31:44.008Z,20.55
2023-04-15T18:34:10.987Z,21.75
2023-04-15T18:36:37.970Z,29.70
2023-04-15T18:39:05.610Z,31.08
2023-04-15T18:41:32.889Z,36.20
2023-04-15T18:43:59.808Z,29.88
2023-04-15T18:46:27.879Z,30.33
2023-04-15T18:48:54.852Z,26.63
2023-04-15T18:51:21.748Z,28.58
2023-04-15T18:53:49.038Z,27.65
2023-04-15T18:56:15.936Z,28.15
2023-04-15T18:59:10.107Z,27.52
2023-04-15T19:01:31.818Z,31.95
2023-04-15T19:03:58.991Z,35.83
2023-04-15T19:06:27.424Z,41.80
2023-04-15T19:08:54.865Z,33.83
2023-04-15T19:11:21.922Z,34.70
2023-04-15T19:13:48.760Z,35.00
2023-04-15T19:16:15.807Z,37.20
2023-04-15T19:18:43.357Z,39.60
2023-04-15T19:21:12.725Z,38.10
2023-04-15T19:23:39.945Z,34.67
2023-04-15T19:26:08.372Z,35.63
2023-04-15T19:28:35.315Z,35.78
2023-04-15T19:31:02.336Z,34.85
2023-04-15T19:33:31.597Z,34.47
2023-04-15T19:36:07.565Z,35.22
2023-04-15T19:38:36.170Z,36.75
2023-04-15T19:41:03.156Z,40.30
2023-04-15T19:43:31.079Z,37.88
2023-04-15T19:45:57.993Z,40.47
2023-04-15T19:48:25.574Z,41.40
2023-04-15T19:50:52.475Z,41.92
2023-04-15T19:53:19.413Z,41.28
2023-04-15T19:55:47.317Z,39.30
2023-04-15T19:58:14.546Z,40.53
2023-04-15T20:00:42.161Z,32.03
2023-04-15T20:03:09.408Z,27.88
2023-04-15T20:05:36.509Z,29.10
2023-04-15T20:08:03.721Z,27.70
2023-04-15T20:10:31.951Z,21.92
2023-04-15T20:12:59.270Z,22.02
2023-04-15T20:15:26.305Z,24.35
2023-04-15T20:17:53.512Z,22.88
2023-04-15T20:20:20.783Z,21.13
2023-04-15T20:22:48.199Z,20.00
2023-04-15T20:25:15.252Z,17.35
2023-04-15T20:27:42.122Z,14.75
2023-04-15T20:30:09.452Z,16.40
2023-04-15T20:32:36.520Z,18.63
2023-04-15T20:35:05.099Z,21.23
2023-04-15T20:37:33.747Z,20.65
2023-04-15T20:40:01.877Z,19.90
2023-04-15T20:42:33.213Z,13.57
2023-04-15T20:45:00.584Z,12.75
2023-04-15T20:47:27.510Z,12.15
2023-04-15T20:49:54.710Z,11.20
2023-04-15T20:52:21.963Z,13.32
2023-04-15T20:54:48.961Z,13.20
2023-04-15T20:57:16.041Z,13.70
2023-04-15T20:59:42.935Z,15.63
2023-04-15T21:02:10.007Z,16.63
2023-04-15T21:04:38.534Z,17.65
2023-04-15T21:07:05.418Z,16.92
2023-04-15T21:09:32.390Z,18.85
2023-04-15T21:12:01.734Z,21.40
2023-04-15T21:14:29.764Z,18.35
2023-04-15T21:17:00.033Z,18.48
2023-04-15T21:19:26.976Z,16.55
2023-04-15T21:21:53.829Z,10.98
2023-04-15T21:24:20.702Z,8.90
2023-04-15T21:26:47.798Z,9.60
2023-04-15T21:29:14.868Z,7.63
2023-04-15T21:31:42.180Z,7.30
2023-04-15T21:34:09.780Z,6.30
2023-04-15T21:36:37.880Z,5.65
2023-04-15T21:39:05.941Z,6.32
2023-04-15T21:41:32.998Z,7.72
2023-04-15T21:44:06.283Z,9.68
2023-04-15T21:46:35.560Z,9.38
2023-04-15T21:49:02.675Z,9.93
2023-04-15T21:51:29.646Z,11.52
2023-04-15T21:53:56.462Z,12.45
2023-04-15T21:56:24.475Z,14.02
2023-04-15T21:58:54.260Z,13.52
2023-04-15T22:01:21.154Z,13.32
2023-04-15T22:03:48.564Z,14.10
2023-04-15T22:06:15.980Z,16.13
2023-04-15T22:08:54.952Z,23.15
2023-04-15T22:11:27.497Z,12.48
2023-04-15T22:13:55.082Z,11.65
2023-04-15T22:16:22.045Z,10.13
2023-04-15T22:18:49.074Z,9.80
2023-04-15T22:21:16.399Z,10.68
2023-04-15T22:23:47.152Z,9.20
2023-04-15T22:26:14.114Z,9.77
2023-04-15T22:28:41.032Z,9.55
2023-04-15T22:31:08.023Z,9.48
2023-04-15T22:33:35.005Z,8.50
2023-04-15T22:36:02.033Z,9.40
2023-04-15T22:38:28.915Z,10.23
2023-04-15T22:40:55.999Z,10.35
2023-04-15T22:43:22.815Z,11.35
2023-04-15T22:46:00.373Z,12.10
2023-04-15T22:48:27.328Z,18.35
2023-04-15T22:50:54.126Z,19.42
2023-04-15T22:53:21.035Z,22.40
2023-04-15T22:55:48.784Z,24.40
2023-04-15T22:58:16.404Z,25.70
2023-04-15T23:00:43.287Z,25.60
2023-04-15T23:03:10.484Z,26.42
2023-04-15T23:05:37.613Z,25.23
2023-04-15T23:08:06.221Z,22.83
2023-04-15T23:10:33.358Z,20.58
2023-04-15T23:13:00.205Z,18.20
2023-04-15T23:15:27.046Z,17.40
2023-04-15T23:17:57.025Z,18.23
2023-04-15T23:20:23.953Z,20.23
2023-04-15T23:22:50.956Z,20.05
2023-04-15T23:25:18.319Z,21.23
2023-04-15T23:27:45.464Z,22.42
2023-04-15T23:30:12.396Z,23.98
2023-04-15T23:32:39.371Z,18.85
2023-04-15T23:35:06.726Z,16.88
2023-04-15T23:37:33.547Z,16.38
2023-04-15T23:40:00.727Z,11.82
2023-04-15T23:42:27.559Z,11.15
2023-04-15T23:44:54.425Z,10.38
2023-04-15T23:47:21.876Z,10.32
2023-04-15T23:49:48.701Z,9.55
2023-04-15T23:52:15.625Z,8.55
2023-04-15T23:54:42.622Z,8.15
2023-04-15T23:57:09.509Z,7.63
2023-04-15T23:59:36.851Z,7.85
